Time;durP1;ratioP1;P1;durP2;ratioP2;P2;SDS_P1;SDS_P2;PMS_P1;PMS_P2;Temp;Humidity;BMP_temperature;BMP_pressure;BME280_temperature;BME280_humidity;BME280_pressure;Samples;Min_cycle;Max_cycle;Signal;HPM_P1;HPM_P2
2022/05/24 00:00:44;;;;;;;2.23;1.40;;;;;;;;;;5015050;28;20177;-83
2022/05/24 00:03:48;;;;;;;2.37;0.90;;;;;;;;;;5003061;28;20217;-83
2022/05/24 00:06:53;;;;;;;4.57;1.40;;;;;;;;;;5002883;28;20197;-83
2022/05/24 00:09:57;;;;;;;3.50;1.43;;;;;;;;;;4975718;28;20202;-83
2022/05/24 00:13:03;;;;;;;2.47;1.30;;;;;;;;;;4983345;28;20226;-83
2022/05/24 00:16:07;;;;;;;1.93;1.10;;;;;;;;;;4972186;28;20186;-83
2022/05/24 00:19:11;;;;;;;4.47;1.30;;;;;;;;;;4961592;28;20518;-83
2022/05/24 00:22:16;;;;;;;3.30;1.33;;;;;;;;;;4972251;28;20578;-83
2022/05/24 00:25:21;;;;;;;4.07;1.30;;;;;;;;;;4961003;28;20178;-83
2022/05/24 00:28:27;;;;;;;2.17;1.33;;;;;;;;;;4972437;28;20526;-83
2022/05/24 00:31:31;;;;;;;3.53;1.43;;;;;;;;;;5002743;28;20178;-83
2022/05/24 00:34:35;;;;;;;2.93;1.43;;;;;;;;;;4991685;28;20186;-83
2022/05/24 00:37:40;;;;;;;7.83;1.90;;;;;;;;;;5002587;28;20214;-83
2022/05/24 00:40:44;;;;;;;3.70;1.47;;;;;;;;;;4992478;28;20186;-83
2022/05/24 00:44:04;;;;;;;6.80;1.93;;;;;;;;;;4983821;28;20225;-83
2022/05/24 00:47:27;;;;;;;5.53;1.70;;;;;;;;;;5006158;28;20178;-83
2022/05/24 00:50:36;;;;;;;6.27;1.60;;;;;;;;;;4986551;28;20190;-83
2022/05/24 00:53:46;;;;;;;5.77;1.90;;;;;;;;;;5004413;28;20214;-83
2022/05/24 00:56:56;;;;;;;2.80;1.93;;;;;;;;;;4995020;28;20177;-83
2022/05/24 01:00:11;;;;;;;4.77;1.73;;;;;;;;;;4994496;28;20198;-83
2022/05/24 01:03:15;;;;;;;6.13;2.03;;;;;;;;;;4983619;28;20217;-83
2022/05/24 01:06:20;;;;;;;5.33;2.23;;;;;;;;;;4972365;28;20201;-83
2022/05/24 01:09:40;;;;;;;5.37;2.30;;;;;;;;;;4986536;28;20178;-83
2022/05/24 01:13:07;;;;;;;7.43;2.13;;;;;;;;;;4964451;28;20672;-83
2022/05/24 01:16:12;;;;;;;7.50;2.93;;;;;;;;;;4975280;28;20183;-83
2022/05/24 01:19:35;;;;;;;3.37;2.40;;;;;;;;;;4964894;28;20178;-83
2022/05/24 01:23:17;;;;;;;6.30;2.50;;;;;;;;;;4963961;28;20214;-83
2022/05/24 01:26:35;;;;;;;4.87;2.27;;;;;;;;;;4998181;28;20185;-83
2022/05/24 01:29:39;;;;;;;5.20;2.00;;;;;;;;;;5005423;28;20186;-83
2022/05/24 01:36:10;;;;;;;5.50;2.30;;;;;;;;;;4993724;28;20185;-83
2022/05/24 01:39:15;;;;;;;6.20;2.37;;;;;;;;;;4974949;28;20669;-83
2022/05/24 01:42:20;;;;;;;4.77;2.20;;;;;;;;;;4974639;28;20229;-83
2022/05/24 01:45:32;;;;;;;3.67;2.20;;;;;;;;;;4985857;28;20182;-83
2022/05/24 01:48:53;;;;;;;9.53;2.07;;;;;;;;;;4986452;28;20178;-83
2022/05/24 01:52:06;;;;;;;4.03;2.30;;;;;;;;;;4962027;28;20558;-83
2022/05/24 01:55:16;;;;;;;4.57;2.27;;;;;;;;;;4973924;28;20182;-83
2022/05/24 01:58:22;;;;;;;5.90;2.67;;;;;;;;;;4962640;28;20202;-83
2022/05/24 02:01:40;;;;;;;4.97;2.10;;;;;;;;;;4973762;28;20182;-83
2022/05/24 02:04:44;;;;;;;3.47;1.90;;;;;;;;;;4984816;28;20190;-83
2022/05/24 02:07:49;;;;;;;7.43;2.37;;;;;;;;;;4991255;28;20185;-83
2022/05/24 02:11:01;;;;;;;4.03;2.27;;;;;;;;;;4992947;28;20181;-83
2022/05/24 02:14:19;;;;;;;5.23;2.57;;;;;;;;;;4993131;28;20525;-83
2022/05/24 02:17:29;;;;;;;6.30;2.20;;;;;;;;;;4981570;28;20182;-83
2022/05/24 02:20:35;;;;;;;9.90;2.70;;;;;;;;;;5016479;28;20181;-83
2022/05/24 02:23:44;;;;;;;7.50;2.47;;;;;;;;;;4992780;28;20217;-83
2022/05/24 02:26:48;;;;;;;4.07;2.40;;;;;;;;;;4981803;28;20181;-83
2022/05/24 02:29:54;;;;;;;5.57;2.50;;;;;;;;;;4992847;28;20541;-83
2022/05/24 02:32:58;;;;;;;6.43;2.60;;;;;;;;;;5004057;28;20217;-83
2022/05/24 02:36:06;;;;;;;5.23;2.90;;;;;;;;;;4992769;28;20539;-83
2022/05/24 02:39:11;;;;;;;8.53;3.00;;;;;;;;;;4981938;28;20213;-83
2022/05/24 02:42:21;;;;;;;4.83;2.40;;;;;;;;;;5004019;28;20217;-83
2022/05/24 02:45:26;;;;;;;6.47;2.70;;;;;;;;;;4992882;28;20185;-83
2022/05/24 02:48:30;;;;;;;3.80;2.10;;;;;;;;;;4973214;28;20621;-83
2022/05/24 02:51:37;;;;;;;5.90;2.03;;;;;;;;;;4984911;28;20186;-83
2022/05/24 02:54:41;;;;;;;4.77;2.60;;;;;;;;;;4978035;28;20197;-83
2022/05/24 02:57:45;;;;;;;3.67;2.53;;;;;;;;;;4992711;28;20225;-83
2022/05/24 03:00:49;;;;;;;3.50;2.10;;;;;;;;;;4993194;28;20178;-83
2022/05/24 03:03:55;;;;;;;6.83;2.57;;;;;;;;;;5003767;28;20225;-83
2022/05/24 03:10:22;;;;;;;4.97;2.40;;;;;;;;;;4992678;28;20617;-83
2022/05/24 03:16:52;;;;;;;2.50;2.00;;;;;;;;;;4995874;28;20182;-83
2022/05/24 03:19:59;;;;;;;6.30;2.33;;;;;;;;;;4974968;28;20179;-83
2022/05/24 03:23:03;;;;;;;3.43;2.40;;;;;;;;;;5003686;28;20221;-83
2022/05/24 03:26:08;;;;;;;6.50;2.43;;;;;;;;;;4981732;28;20537;-83
2022/05/24 03:29:13;;;;;;;6.80;2.73;;;;;;;;;;4992491;28;20178;-83
2022/05/24 03:32:18;;;;;;;5.20;2.23;;;;;;;;;;4989401;28;20221;-83
2022/05/24 03:35:24;;;;;;;5.17;2.10;;;;;;;;;;4973040;28;20526;-83
2022/05/24 03:38:29;;;;;;;5.07;2.43;;;;;;;;;;4984142;28;20210;-83
2022/05/24 03:41:34;;;;;;;4.30;2.27;;;;;;;;;;4973105;28;20187;-83
2022/05/24 03:44:38;;;;;;;4.27;2.67;;;;;;;;;;4990268;28;20189;-83
2022/05/24 03:47:42;;;;;;;6.37;2.63;;;;;;;;;;4981809;28;20181;-83
2022/05/24 03:50:46;;;;;;;4.70;2.43;;;;;;;;;;4981955;28;20636;-83
2022/05/24 03:53:50;;;;;;;4.73;2.63;;;;;;;;;;4992862;28;20213;-83
2022/05/24 04:00:19;;;;;;;6.70;2.40;;;;;;;;;;4992755;28;20182;-83
2022/05/24 04:03:24;;;;;;;5.27;2.60;;;;;;;;;;5003179;28;20217;-83
2022/05/24 04:06:28;;;;;;;5.77;2.17;;;;;;;;;;4986336;28;20194;-83
2022/05/24 04:09:33;;;;;;;8.07;2.43;;;;;;;;;;4990318;28;20193;-84
2022/05/24 04:12:37;;;;;;;4.73;2.07;;;;;;;;;;4981579;28;20221;-83
2022/05/24 04:15:41;;;;;;;8.53;2.73;;;;;;;;;;4975994;28;20198;-83
2022/05/24 04:18:45;;;;;;;5.80;2.70;;;;;;;;;;4987504;28;20206;-83
2022/05/24 04:21:49;;;;;;;6.07;2.50;;;;;;;;;;4999031;28;20177;-83
2022/05/24 04:24:56;;;;;;;4.50;2.37;;;;;;;;;;5000224;28;20178;-83
2022/05/24 04:27:59;;;;;;;5.10;2.33;;;;;;;;;;4999095;28;20174;-83
2022/05/24 04:31:06;;;;;;;6.93;2.40;;;;;;;;;;4998590;28;20182;-83
2022/05/24 04:34:10;;;;;;;6.10;2.10;;;;;;;;;;4994052;28;20205;-83
2022/05/24 04:37:15;;;;;;;3.30;2.10;;;;;;;;;;4995277;28;20177;-83
2022/05/24 04:40:19;;;;;;;7.17;2.60;;;;;;;;;;4984452;28;20628;-83
2022/05/24 04:43:23;;;;;;;4.67;2.40;;;;;;;;;;5070382;23;20236;-84
2022/05/24 04:47:06;;;;;;;4.37;2.37;;;;;;;;;;5033719;28;20180;-84
2022/05/24 04:49:56;;;;;;;5.13;2.27;;;;;;;;;;5044602;28;20188;-83
2022/05/24 04:53:06;;;;;;;3.73;2.17;;;;;;;;;;5057656;28;20224;-80
2022/05/24 04:56:10;;;;;;;5.47;2.47;;;;;;;;;;5044964;28;20539;-81
2022/05/24 04:59:16;;;;;;;8.10;2.87;;;;;;;;;;5023076;28;20539;-81
2022/05/24 05:02:21;;;;;;;2.93;1.90;;;;;;;;;;5041161;28;20220;-81
2022/05/24 05:05:25;;;;;;;5.80;2.57;;;;;;;;;;5044403;28;20200;-81
2022/05/24 05:08:32;;;;;;;4.80;2.23;;;;;;;;;;5044882;28;20658;-81
2022/05/24 05:11:37;;;;;;;7.00;2.40;;;;;;;;;;5033842;28;20200;-82
2022/05/24 05:14:42;;;;;;;5.23;2.07;;;;;;;;;;5057656;28;20180;-81
2022/05/24 05:17:48;;;;;;;4.43;2.20;;;;;;;;;;5034569;28;20630;-81
2022/05/24 05:20:53;;;;;;;5.13;2.20;;;;;;;;;;5022289;28;20536;-81
2022/05/24 05:23:58;;;;;;;3.33;1.77;;;;;;;;;;5044845;28;20216;-81
2022/05/24 05:27:03;;;;;;;5.70;2.30;;;;;;;;;;5031896;28;20639;-82
2022/05/24 05:33:31;;;;;;;4.40;2.13;;;;;;;;;;5016597;28;20216;-82
2022/05/24 05:36:35;;;;;;;5.23;2.00;;;;;;;;;;4993855;28;20189;-81
2022/05/24 05:39:40;;;;;;;5.07;2.43;;;;;;;;;;5019450;28;20201;-82
2022/05/24 05:42:44;;;;;;;5.80;2.30;;;;;;;;;;5020490;28;20228;-82
2022/05/24 05:45:57;;;;;;;4.20;2.07;;;;;;;;;;5021887;28;20188;-82
2022/05/24 05:49:02;;;;;;;4.80;2.00;;;;;;;;;;5029386;28;20659;-83
2022/05/24 05:52:06;;;;;;;2.73;1.93;;;;;;;;;;5035244;28;20176;-83
2022/05/24 05:55:10;;;;;;;3.77;1.80;;;;;;;;;;5021994;28;20184;-81
2022/05/24 05:58:15;;;;;;;3.33;2.27;;;;;;;;;;5044736;28;20184;-82
2022/05/24 06:01:28;;;;;;;3.37;2.20;;;;;;;;;;5021378;28;20199;-82
2022/05/24 06:04:34;;;;;;;3.10;2.13;;;;;;;;;;5018403;28;20196;-82
2022/05/24 06:07:38;;;;;;;2.50;1.93;;;;;;;;;;5013700;28;20177;-82
2022/05/24 06:10:42;;;;;;;4.40;2.03;;;;;;;;;;5024019;28;20176;-82
2022/05/24 06:13:46;;;;;;;4.43;2.30;;;;;;;;;;5024636;28;20209;-82
2022/05/24 06:16:51;;;;;;;3.50;2.10;;;;;;;;;;5023727;28;20185;-81
2022/05/24 06:19:59;;;;;;;3.47;2.13;;;;;;;;;;5000676;28;20675;-84
2022/05/24 06:23:03;;;;;;;6.10;2.20;;;;;;;;;;5012245;28;20220;-85
2022/05/24 06:26:11;;;;;;;3.93;2.30;;;;;;;;;;5023129;28;20172;-84
2022/05/24 06:29:15;;;;;;;4.03;2.20;;;;;;;;;;5000248;28;20189;-84
2022/05/24 06:32:19;;;;;;;4.60;2.20;;;;;;;;;;5011647;28;20212;-84
2022/05/24 06:35:24;;;;;;;4.07;2.40;;;;;;;;;;5000502;28;20528;-84
2022/05/24 06:38:28;;;;;;;6.20;1.93;;;;;;;;;;5000350;28;20180;-84
2022/05/24 06:41:32;;;;;;;4.77;2.53;;;;;;;;;;4991640;28;20201;-84
2022/05/24 06:44:36;;;;;;;3.90;2.00;;;;;;;;;;5015230;28;20177;-84
2022/05/24 06:47:40;;;;;;;3.30;2.07;;;;;;;;;;5003269;28;20178;-84
2022/05/24 06:50:45;;;;;;;3.93;2.37;;;;;;;;;;5003154;28;20193;-84
2022/05/24 06:53:50;;;;;;;2.93;2.47;;;;;;;;;;5014032;28;20225;-84
2022/05/24 06:56:54;;;;;;;4.53;2.17;;;;;;;;;;4980565;28;20181;-83
2022/05/24 07:03:20;;;;;;;5.97;2.30;;;;;;;;;;4991688;28;20221;-84
2022/05/24 07:06:25;;;;;;;3.97;2.50;;;;;;;;;;5003182;28;20636;-84
2022/05/24 07:09:31;;;;;;;4.53;2.27;;;;;;;;;;4991678;28;20174;-84
2022/05/24 07:12:35;;;;;;;4.97;2.30;;;;;;;;;;5008304;28;20224;-83
2022/05/24 07:15:39;;;;;;;4.40;2.27;;;;;;;;;;5011822;28;20172;-84
2022/05/24 07:18:43;;;;;;;4.63;2.30;;;;;;;;;;5011652;28;20176;-84
2022/05/24 07:21:47;;;;;;;5.27;2.37;;;;;;;;;;5022929;28;20181;-85
2022/05/24 07:24:51;;;;;;;4.87;2.27;;;;;;;;;;4999991;28;20540;-83
2022/05/24 07:27:56;;;;;;;5.43;2.33;;;;;;;;;;5010560;28;20196;-83
2022/05/24 07:30:59;;;;;;;5.83;2.43;;;;;;;;;;5011513;28;20628;-84
2022/05/24 07:34:04;;;;;;;4.07;2.50;;;;;;;;;;5034369;28;20224;-84
2022/05/24 07:37:17;;;;;;;4.27;2.40;;;;;;;;;;5034410;28;20181;-84
2022/05/24 07:47:07;;;;;;;5.50;2.70;;;;;;;;;;5011053;28;20181;-84
2022/05/24 07:50:11;;;;;;;5.90;3.40;;;;;;;;;;5023352;28;20173;-84
2022/05/24 07:53:15;;;;;;;5.97;2.60;;;;;;;;;;5015544;28;20687;-84
2022/05/24 07:56:20;;;;;;;3.53;3.20;;;;;;;;;;5004269;28;20196;-84
2022/05/24 07:59:24;;;;;;;5.03;2.50;;;;;;;;;;5015157;28;20686;-83
2022/05/24 08:02:29;;;;;;;5.93;2.37;;;;;;;;;;4983591;28;20225;-83
2022/05/24 08:05:34;;;;;;;4.53;1.93;;;;;;;;;;5006488;28;20181;-83
2022/05/24 08:08:39;;;;;;;3.73;2.37;;;;;;;;;;4995726;28;20177;-85
2022/05/24 08:11:43;;;;;;;3.47;2.50;;;;;;;;;;5011757;28;20184;-84
2022/05/24 08:14:48;;;;;;;4.43;3.10;;;;;;;;;;5035193;28;20192;-83
2022/05/24 08:17:52;;;;;;;6.03;2.87;;;;;;;;;;5008439;28;20185;-84
2022/05/24 08:20:57;;;;;;;3.23;2.80;;;;;;;;;;5008285;28;20208;-84
2022/05/24 08:24:02;;;;;;;4.70;3.10;;;;;;;;;;5034905;28;20220;-84
2022/05/24 08:27:06;;;;;;;7.80;2.80;;;;;;;;;;5023988;28;20183;-84
2022/05/24 08:30:13;;;;;;;6.43;3.03;;;;;;;;;;5016466;28;20192;-84
2022/05/24 08:33:17;;;;;;;4.70;2.83;;;;;;;;;;5013939;28;20221;-84
2022/05/24 08:36:21;;;;;;;5.40;2.63;;;;;;;;;;5022512;28;20192;-83
2022/05/24 08:39:26;;;;;;;4.37;2.93;;;;;;;;;;5017997;28;20208;-83
2022/05/24 08:42:51;;;;;;;3.50;3.20;;;;;;;;;;5044523;28;20219;-84
2022/05/24 08:49:22;;;;;;;4.03;2.70;;;;;;;;;;5025569;28;20636;-84
2022/05/24 08:52:35;;;;;;;3.23;2.33;;;;;;;;;;5040058;28;20224;-84
2022/05/24 08:55:40;;;;;;;4.83;2.30;;;;;;;;;;5000591;28;20201;-83
2022/05/24 08:58:50;;;;;;;2.67;1.97;;;;;;;;;;5044828;28;20188;-84
2022/05/24 09:01:56;;;;;;;2.57;1.80;;;;;;;;;;5002371;28;20185;-84
2022/05/24 09:05:00;;;;;;;4.47;1.70;;;;;;;;;;5005366;28;20182;-84
2022/05/24 09:08:22;;;;;;;2.40;1.67;;;;;;;;;;4993951;28;20177;-84
2022/05/24 09:11:45;;;;;;;2.90;1.50;;;;;;;;;;4982654;28;20181;-84
2022/05/24 09:14:58;;;;;;;2.77;1.60;;;;;;;;;;5001492;28;20652;-84
2022/05/24 09:18:20;;;;;;;4.53;1.90;;;;;;;;;;4992636;28;20628;-84
2022/05/24 09:21:28;;;;;;;4.97;1.60;;;;;;;;;;5027249;28;20212;-84
2022/05/24 09:24:43;;;;;;;3.00;1.60;;;;;;;;;;5016158;28;20174;-84
2022/05/24 09:27:53;;;;;;;5.57;1.77;;;;;;;;;;5019537;28;20196;-84
2022/05/24 09:30:58;;;;;;;4.67;1.40;;;;;;;;;;5032680;28;20181;-84
2022/05/24 09:34:09;;;;;;;2.57;1.37;;;;;;;;;;4994324;28;20217;-84
2022/05/24 09:37:22;;;;;;;3.73;1.70;;;;;;;;;;5020154;28;20200;-84
2022/05/24 09:40:27;;;;;;;2.63;1.27;;;;;;;;;;5032273;28;20216;-84
2022/05/24 09:43:35;;;;;;;3.23;1.33;;;;;;;;;;5001235;28;20224;-84
2022/05/24 09:46:42;;;;;;;2.70;1.37;;;;;;;;;;5013342;28;20193;-84
2022/05/24 09:49:46;;;;;;;4.13;1.20;;;;;;;;;;5014572;28;20185;-84
2022/05/24 09:53:03;;;;;;;7.83;1.53;;;;;;;;;;5021058;28;20220;-84
2022/05/24 09:56:23;;;;;;;3.13;1.43;;;;;;;;;;5027390;28;20189;-84
2022/05/24 09:59:28;;;;;;;3.43;1.20;;;;;;;;;;5019876;28;20655;-84
2022/05/24 10:02:34;;;;;;;2.93;1.03;;;;;;;;;;5013043;28;20212;-84
2022/05/24 10:05:39;;;;;;;3.17;0.97;;;;;;;;;;5004098;28;20185;-84
2022/05/24 10:08:52;;;;;;;2.40;0.90;;;;;;;;;;5025066;28;20188;-84
2022/05/24 10:11:59;;;;;;;2.10;1.10;;;;;;;;;;5015565;28;20185;-84
2022/05/24 10:15:14;;;;;;;2.60;1.30;;;;;;;;;;5001122;28;20185;-83
2022/05/24 10:18:43;;;;;;;3.23;0.90;;;;;;;;;;5001349;28;20185;-84
2022/05/24 10:22:08;;;;;;;1.47;0.90;;;;;;;;;;5023389;28;20204;-84
2022/05/24 10:25:52;;;;;;;5.07;1.50;;;;;;;;;;5015095;28;20196;-84
2022/05/24 10:29:28;;;;;;;1.47;0.80;;;;;;;;;;5018294;28;20184;-84
2022/05/24 10:40:14;;;;;;;2.53;1.07;;;;;;;;;;5054490;28;20180;-84
2022/05/24 10:43:52;;;;;;;6.07;0.97;;;;;;;;;;5053617;28;20223;-84
2022/05/24 10:46:56;;;;;;;3.40;1.30;;;;;;;;;;5029900;28;20176;-84
2022/05/24 10:50:39;;;;;;;3.47;1.20;;;;;;;;;;5030633;28;20655;-84
2022/05/24 10:54:10;;;;;;;9.53;0.80;;;;;;;;;;5030366;28;20702;-84
2022/05/24 10:57:21;;;;;;;8.63;0.80;;;;;;;;;;5019128;28;20524;-84
2022/05/24 11:00:32;;;;;;;5.93;0.50;;;;;;;;;;5051946;28;20674;-84
2022/05/24 11:03:44;;;;;;;6.97;0.60;;;;;;;;;;5038070;28;20219;-83
2022/05/24 11:06:59;;;;;;;0.30;0.30;;;;;;;;;;5032321;28;20189;-84
2022/05/24 11:10:09;;;;;;;5.00;0.57;;;;;;;;;;5010042;28;20177;-84
2022/05/24 11:13:35;;;;;;;6.53;0.53;;;;;;;;;;4998734;28;20212;-84
2022/05/24 11:16:48;;;;;;;2.00;0.40;;;;;;;;;;5009834;28;20189;-84
2022/05/24 11:19:55;;;;;;;2.60;0.43;;;;;;;;;;5009841;28;20184;-84
2022/05/24 11:23:10;;;;;;;0.57;0.37;;;;;;;;;;5009762;28;20217;-84
2022/05/24 11:26:24;;;;;;;1.13;0.70;;;;;;;;;;5009733;28;20193;-84
2022/05/24 11:29:35;;;;;;;0.50;0.40;;;;;;;;;;4998787;28;20189;-84
2022/05/24 11:32:50;;;;;;;1.70;0.50;;;;;;;;;;5010906;28;20545;-83
2022/05/24 11:36:21;;;;;;;0.67;0.40;;;;;;;;;;5020965;28;20185;-83
2022/05/24 11:39:30;;;;;;;0.87;0.50;;;;;;;;;;5010263;28;20177;-84
2022/05/24 11:42:40;;;;;;;1.10;1.00;;;;;;;;;;4972539;28;1073647;-83
2022/05/24 11:45:58;;;;;;;1.83;1.30;;;;;;;;;;5010897;28;20192;-84
2022/05/24 11:49:05;;;;;;;5.00;4.23;;;;;;;;;;5018961;28;20192;-83
2022/05/24 11:52:40;;;;;;;3.47;1.80;;;;;;;;;;5030369;28;20184;-84
2022/05/24 11:55:46;;;;;;;2.60;0.80;;;;;;;;;;5030963;28;20635;-83
2022/05/24 11:58:56;;;;;;;1.47;1.37;;;;;;;;;;5022351;28;20172;-84
2022/05/24 12:09:26;;;;;;;3.40;0.70;;;;;;;;;;5022880;28;20177;-84
2022/05/24 12:12:37;;;;;;;1.50;1.40;;;;;;;;;;4999173;28;20238;-84
2022/05/24 12:15:43;;;;;;;2.57;1.20;;;;;;;;;;5010612;28;20185;-84
2022/05/24 12:18:57;;;;;;;0.90;0.90;;;;;;;;;;5021849;28;20181;-83
2022/05/24 12:22:09;;;;;;;1.87;1.07;;;;;;;;;;5002479;28;20213;-84
2022/05/24 12:25:51;;;;;;;1.10;0.80;;;;;;;;;;5001834;28;20197;-83
2022/05/24 12:28:55;;;;;;;0.97;0.60;;;;;;;;;;5001735;28;20182;-83
2022/05/24 12:32:05;;;;;;;1.10;0.50;;;;;;;;;;5002094;28;20177;-83
2022/05/24 12:35:12;;;;;;;0.60;0.60;;;;;;;;;;4990696;28;20182;-83
2022/05/24 12:38:20;;;;;;;3.20;0.70;;;;;;;;;;4994501;28;20178;-83
2022/05/24 12:41:30;;;;;;;2.63;0.60;;;;;;;;;;5005363;28;20209;-83
2022/05/24 12:44:48;;;;;;;2.33;0.60;;;;;;;;;;5029360;28;20635;-83
2022/05/24 12:47:53;;;;;;;0.60;0.60;;;;;;;;;;5044559;28;20180;-83
2022/05/24 12:51:07;;;;;;;4.37;0.80;;;;;;;;;;5015384;28;20189;-84
2022/05/24 12:54:16;;;;;;;2.23;0.70;;;;;;;;;;5034451;28;20221;-84
2022/05/24 12:57:26;;;;;;;3.17;1.00;;;;;;;;;;5015697;28;20185;-83
2022/05/24 13:00:31;;;;;;;2.43;0.90;;;;;;;;;;5019827;28;20200;-83
2022/05/24 13:03:35;;;;;;;1.70;1.00;;;;;;;;;;5030822;28;20212;-84
2022/05/24 13:06:52;;;;;;;1.43;0.90;;;;;;;;;;5021738;28;20197;-83
2022/05/24 13:09:56;;;;;;;1.40;0.70;;;;;;;;;;5022170;28;20187;-83
2022/05/24 13:13:13;;;;;;;2.07;0.90;;;;;;;;;;5032369;28;20220;-83
2022/05/24 13:16:17;;;;;;;1.20;0.90;;;;;;;;;;5043791;28;20200;-83
2022/05/24 13:19:21;;;;;;;2.47;0.90;;;;;;;;;;5019099;28;20201;-83
2022/05/24 13:22:53;;;;;;;2.87;0.90;;;;;;;;;;4993050;28;20225;-83
2022/05/24 13:26:03;;;;;;;5.07;1.10;;;;;;;;;;4996928;28;20197;-84
2022/05/24 13:29:23;;;;;;;1.30;1.10;;;;;;;;;;4993214;28;20181;-83
2022/05/24 13:35:50;;;;;;;2.33;1.17;;;;;;;;;;4998739;28;20536;-83
2022/05/24 13:39:03;;;;;;;3.23;1.20;;;;;;;;;;5032107;28;20180;-83
2022/05/24 13:42:28;;;;;;;3.10;1.40;;;;;;;;;;5020687;28;20228;-83
2022/05/24 13:45:34;;;;;;;2.03;1.30;;;;;;;;;;5004275;28;20177;-83
2022/05/24 13:48:42;;;;;;;1.60;1.40;;;;;;;;;;5017171;28;20192;-83
2022/05/24 13:51:46;;;;;;;2.53;1.23;;;;;;;;;;5050332;28;20276;-84
2022/05/24 13:55:08;;;;;;;3.17;1.10;;;;;;;;;;5022175;28;20192;-84
2022/05/24 13:58:15;;;;;;;1.93;1.10;;;;;;;;;;5043544;28;20188;-87
2022/05/24 14:01:49;;;;;;;1.50;1.10;;;;;;;;;;5020935;28;20204;-83
2022/05/24 14:04:54;;;;;;;2.40;1.20;;;;;;;;;;5043527;28;20516;-84
2022/05/24 14:07:59;;;;;;;2.33;1.20;;;;;;;;;;5043301;28;20631;-83
2022/05/24 14:11:06;;;;;;;0.90;0.90;;;;;;;;;;5042913;28;20184;-84
2022/05/24 14:14:10;;;;;;;0.93;0.83;;;;;;;;;;4997476;28;20221;-84
2022/05/24 14:17:15;;;;;;;1.97;0.90;;;;;;;;;;4981559;28;20636;-84
2022/05/24 14:20:19;;;;;;;1.00;0.80;;;;;;;;;;5024772;28;20192;-83
2022/05/24 14:23:24;;;;;;;4.53;1.17;;;;;;;;;;5037328;28;20212;-84
2022/05/24 14:26:28;;;;;;;1.43;0.77;;;;;;;;;;5024123;28;20181;-84
2022/05/24 14:29:32;;;;;;;1.63;1.00;;;;;;;;;;5023438;28;20176;-84
2022/05/24 14:32:38;;;;;;;3.00;1.00;;;;;;;;;;5023238;28;20216;-84
2022/05/24 14:35:42;;;;;;;0.90;0.80;;;;;;;;;;5020780;28;20200;-84
2022/05/24 14:38:47;;;;;;;1.57;0.97;;;;;;;;;;5038843;28;20193;-82
2022/05/24 14:41:51;;;;;;;1.63;1.00;;;;;;;;;;5023221;28;20213;-82
2022/05/24 14:44:55;;;;;;;1.10;0.87;;;;;;;;;;5022990;28;20177;-83
2022/05/24 14:47:59;;;;;;;1.50;0.77;;;;;;;;;;5012338;28;20185;-83
2022/05/24 14:51:07;;;;;;;2.20;0.90;;;;;;;;;;5003672;28;20628;-83
2022/05/24 14:54:11;;;;;;;2.60;0.63;;;;;;;;;;4980842;28;20217;-86
2022/05/24 14:57:16;;;;;;;1.37;0.80;;;;;;;;;;5034612;28;20632;-83
2022/05/24 15:00:23;;;;;;;1.27;0.80;;;;;;;;;;5020810;28;20184;-83
2022/05/24 15:03:29;;;;;;;1.10;0.80;;;;;;;;;;5022498;28;20208;-83
2022/05/24 15:06:36;;;;;;;4.70;0.80;;;;;;;;;;5011405;28;20177;-83
2022/05/24 15:16:26;;;;;;;3.50;0.90;;;;;;;;;;5022831;28;20185;-84
2022/05/24 15:19:30;;;;;;;3.80;0.80;;;;;;;;;;5022606;28;20181;-84
2022/05/24 15:22:37;;;;;;;1.40;0.80;;;;;;;;;;5011383;28;20228;-84
2022/05/24 15:25:47;;;;;;;1.07;0.77;;;;;;;;;;5022444;28;20181;-84
2022/05/24 15:28:54;;;;;;;0.60;0.60;;;;;;;;;;5011668;28;20185;-84
2022/05/24 15:31:58;;;;;;;2.73;0.90;;;;;;;;;;5011481;28;20181;-83
2022/05/24 15:35:05;;;;;;;1.80;0.80;;;;;;;;;;4999886;28;20525;-84
2022/05/24 15:38:09;;;;;;;3.33;0.90;;;;;;;;;;5022415;28;20173;-84
2022/05/24 15:41:13;;;;;;;1.63;0.80;;;;;;;;;;5034229;28;20521;-84
2022/05/24 15:44:19;;;;;;;2.23;0.87;;;;;;;;;;5022166;28;20216;-84
2022/05/24 15:47:23;;;;;;;2.23;0.80;;;;;;;;;;5022478;28;20176;-83
2022/05/24 15:50:28;;;;;;;6.17;0.90;;;;;;;;;;5010979;28;20196;-84
2022/05/24 15:53:34;;;;;;;1.43;0.70;;;;;;;;;;5010644;28;20212;-84
2022/05/24 15:56:38;;;;;;;0.87;0.70;;;;;;;;;;5022188;28;20201;-84
2022/05/24 15:59:42;;;;;;;2.03;0.90;;;;;;;;;;5021751;28;20200;-83
2022/05/24 16:02:48;;;;;;;3.77;0.90;;;;;;;;;;5021515;28;20576;-84
2022/05/24 16:12:44;;;;;;;2.63;0.80;;;;;;;;;;5021962;28;20217;-82
2022/05/24 16:15:50;;;;;;;0.73;0.60;;;;;;;;;;5005692;28;20201;-84
2022/05/24 16:18:54;;;;;;;1.90;1.00;;;;;;;;;;5033869;28;20548;-84
2022/05/24 16:22:00;;;;;;;3.13;0.80;;;;;;;;;;5018248;28;20217;-84
2022/05/24 16:25:05;;;;;;;1.30;0.70;;;;;;;;;;5003803;28;20655;-84
2022/05/24 16:28:14;;;;;;;2.50;0.70;;;;;;;;;;5014027;28;20188;-84
2022/05/24 16:31:19;;;;;;;4.90;0.80;;;;;;;;;;5014308;28;20181;-84
2022/05/24 16:34:23;;;;;;;1.40;0.73;;;;;;;;;;5037267;28;20200;-84
2022/05/24 16:37:27;;;;;;;1.53;0.60;;;;;;;;;;5003176;28;20516;-84
2022/05/24 16:40:32;;;;;;;2.20;0.80;;;;;;;;;;5018828;28;20173;-84
2022/05/24 16:43:37;;;;;;;5.23;0.77;;;;;;;;;;5012628;28;20232;-84
2022/05/24 16:46:41;;;;;;;0.77;0.77;;;;;;;;;;5008398;28;20201;-84
2022/05/24 16:49:45;;;;;;;4.27;1.00;;;;;;;;;;5066159;22;20235;-82
2022/05/24 16:52:50;;;;;;;2.63;0.63;;;;;;;;;;5046179;28;20168;-82
2022/05/24 16:59:17;;;;;;;0.70;0.67;;;;;;;;;;5033655;28;20217;-82
2022/05/24 17:02:21;;;;;;;5.23;1.40;;;;;;;;;;5006800;28;20221;-82
2022/05/24 17:05:28;;;;;;;4.07;1.00;;;;;;;;;;5023815;28;20204;-83
2022/05/24 17:08:32;;;;;;;1.97;0.77;;;;;;;;;;5031817;28;20184;-85
2022/05/24 17:11:36;;;;;;;2.70;0.80;;;;;;;;;;5023610;28;20176;-83
2022/05/24 17:14:40;;;;;;;5.00;0.90;;;;;;;;;;5046379;28;20247;-83
2022/05/24 17:17:45;;;;;;;3.13;0.97;;;;;;;;;;5033655;28;20539;-82
2022/05/24 17:20:49;;;;;;;1.33;0.80;;;;;;;;;;5014066;28;20217;-81
2022/05/24 17:23:53;;;;;;;1.80;0.93;;;;;;;;;;5013883;28;20208;-81
2022/05/24 17:26:59;;;;;;;2.70;1.20;;;;;;;;;;5023174;28;20184;-82
2022/05/24 17:30:05;;;;;;;1.13;0.80;;;;;;;;;;5015515;28;20221;-82
2022/05/24 17:33:23;;;;;;;1.20;0.97;;;;;;;;;;5015721;28;20193;-81
2022/05/24 17:36:27;;;;;;;2.47;1.10;;;;;;;;;;5027011;28;20193;-82
2022/05/24 17:39:31;;;;;;;1.10;1.00;;;;;;;;;;5016084;28;20690;-82
2022/05/24 17:42:38;;;;;;;3.97;1.10;;;;;;;;;;5023210;28;20207;-81
2022/05/24 17:45:44;;;;;;;1.57;1.20;;;;;;;;;;5037427;28;20181;-82
2022/05/24 17:48:51;;;;;;;7.43;1.37;;;;;;;;;;5015831;28;20173;-81
2022/05/24 17:51:57;;;;;;;2.33;1.20;;;;;;;;;;5028073;28;20176;-81
2022/05/24 17:55:01;;;;;;;3.60;1.30;;;;;;;;;;5005480;28;20655;-82
2022/05/24 17:58:06;;;;;;;4.67;1.30;;;;;;;;;;5027486;28;20185;-82
2022/05/24 18:01:11;;;;;;;1.93;1.10;;;;;;;;;;5027388;28;20177;-81
2022/05/24 18:04:15;;;;;;;4.40;1.30;;;;;;;;;;5014094;28;20632;-82
2022/05/24 18:07:19;;;;;;;3.10;1.20;;;;;;;;;;5013931;28;20636;-82
2022/05/24 18:10:23;;;;;;;3.73;1.27;;;;;;;;;;5024807;28;20212;-81
2022/05/24 18:13:27;;;;;;;3.23;1.37;;;;;;;;;;5013865;28;20177;-82
2022/05/24 18:16:32;;;;;;;1.40;1.30;;;;;;;;;;5024649;28;20624;-82
2022/05/24 18:19:37;;;;;;;6.50;1.60;;;;;;;;;;5024775;28;20224;-82
2022/05/24 18:22:58;;;;;;;1.50;1.33;;;;;;;;;;5002713;28;20216;-82
2022/05/24 18:33:06;;;;;;;7.47;2.13;;;;;;;;;;5035865;28;20178;-82
2022/05/24 18:36:14;;;;;;;6.13;1.70;;;;;;;;;;5035731;28;20525;-82
2022/05/24 18:39:19;;;;;;;2.17;1.80;;;;;;;;;;5024014;28;20220;-82
2022/05/24 18:42:24;;;;;;;2.40;1.97;;;;;;;;;;5023750;28;20209;-82
2022/05/24 18:45:28;;;;;;;10.90;2.00;;;;;;;;;;5012350;28;20181;-82
2022/05/24 18:48:32;;;;;;;4.50;2.00;;;;;;;;;;5011847;28;20196;-82
2022/05/24 18:51:36;;;;;;;11.17;2.13;;;;;;;;;;5001956;28;20528;-83
2022/05/24 18:54:40;;;;;;;3.47;2.10;;;;;;;;;;5002353;28;20176;-83
2022/05/24 18:57:45;;;;;;;2.50;2.23;;;;;;;;;;5025223;28;20181;-82
2022/05/24 19:00:49;;;;;;;3.67;2.63;;;;;;;;;;5035690;28;20212;-82
2022/05/24 19:03:53;;;;;;;6.80;2.20;;;;;;;;;;5022681;28;20204;-82
2022/05/24 19:10:21;;;;;;;4.83;2.43;;;;;;;;;;5022880;28;20220;-82
2022/05/24 19:13:25;;;;;;;3.30;2.07;;;;;;;;;;5000826;28;20189;-82
2022/05/24 19:16:29;;;;;;;5.73;2.27;;;;;;;;;;5011591;28;20524;-82
2022/05/24 19:19:34;;;;;;;2.47;2.10;;;;;;;;;;5022262;28;20208;-82
2022/05/24 19:22:41;;;;;;;4.13;2.20;;;;;;;;;;5010884;28;20204;-82
2022/05/24 19:25:45;;;;;;;6.27;2.07;;;;;;;;;;5022222;28;20176;-82
2022/05/24 19:28:49;;;;;;;7.77;3.17;;;;;;;;;;5010950;28;20624;-82
2022/05/24 19:31:54;;;;;;;3.37;1.93;;;;;;;;;;5011591;28;20196;-82
2022/05/24 19:34:58;;;;;;;4.07;2.10;;;;;;;;;;5010627;28;20192;-82
2022/05/24 19:38:02;;;;;;;3.43;1.60;;;;;;;;;;5011299;28;20181;-82
2022/05/24 19:44:28;;;;;;;2.27;1.50;;;;;;;;;;5010352;28;20212;-82
2022/05/24 19:47:35;;;;;;;3.00;1.60;;;;;;;;;;5033362;28;20180;-82
2022/05/24 19:50:39;;;;;;;3.97;1.77;;;;;;;;;;5010429;28;20225;-82
2022/05/24 19:53:44;;;;;;;4.00;2.03;;;;;;;;;;4999614;28;20176;-82
2022/05/24 19:56:51;;;;;;;4.00;1.70;;;;;;;;;;5022368;28;20177;-82
2022/05/24 19:59:56;;;;;;;2.33;1.50;;;;;;;;;;5011194;28;20216;-82
2022/05/24 20:03:00;;;;;;;2.10;1.70;;;;;;;;;;5034103;28;20224;-82
2022/05/24 20:06:04;;;;;;;2.50;1.73;;;;;;;;;;5010796;28;20562;-82